Accueil
METAR-TAF:

METAR-TAF

Aéroports :

Istres, France

Base aérienne 125 Istres-Le Tubé

latitude: 43-31N, longitude: 004-56E, altitude: 23 m

Observation

Le bulletin a été fait il y a 12 minutes, à 05:00 UTC
Vent 21 kt de nord/nord-ouest
Température 7°C
Humidité 81%
Pression 1019 hPa
Visibilité 10 km ou plus

METAR: LFMI 180500Z AUTO 33021KT 9999 NSC 07/04 Q1019 TEMPO 34020G37KT

Heure: 06:12 (05:12 UTC)

Prévision

Le bulletin a été fait il y a 3 heures et 12 minutes, à 02:00 UTC
Prévision valable du 18 à 03 UTC au 19 à 03 UTC
Vent 20 kt de nord-ouest
Visibilité 10 km ou plus
pas de nuages en-dessous de 1500 mètres et pas de cumulonimbus.
Temporairement
du 18 à 03 UTC au 18 à 15 UTC
Vent 20 kt de nord/nord-ouest avec des rafales jusqu'à 37 kt
Evoluant progressivement
du 18 à 21 UTC au 18 à 23 UTC
Vent 10 kt de nord/nord-ouest

TAF: LFMI 180200Z 1803/1903 32020KT CAVOK TEMPO 1803/1815 34020G37KT BECMG 1821/1823 34010KT

Observations et prévisions météorologiques de plus de 4000 aéroports (messages METAR et TAF).

Les stations disponibles sont représentées par des disques jaunes et rouges sur la carte.

Passer la souris dessus pour voir le nom de la station.

Cliquer dessus pour voir les observations et prévisions météorologiques.

Pour changer de carte: cliquez sur les boutons verts avec une croix noire pour zoomer, sur le bouton vert avec un tiret pour effectuer un zoom arrière, ou sur les flèches vertes pour les cartes adjacentes.


METAR-TAF: